createdAt,value
2018-09-15T00:00:42.952Z,77.80
2018-09-15T00:03:10.738Z,78.00
2018-09-15T00:05:38.541Z,78.40
2018-09-15T00:08:06.340Z,78.90
2018-09-15T00:10:34.147Z,79.40
2018-09-15T00:13:01.988Z,79.10
2018-09-15T00:15:29.770Z,79.10
2018-09-15T00:17:59.060Z,79.10
2018-09-15T00:20:26.978Z,78.90
2018-09-15T00:22:54.900Z,79.20
2018-09-15T00:25:22.903Z,79.10
2018-09-15T00:27:50.681Z,79.20
2018-09-15T00:30:18.486Z,79.30
2018-09-15T00:32:46.254Z,79.50
2018-09-15T00:35:14.147Z,80.00
2018-09-15T00:37:41.897Z,80.30
2018-09-15T00:40:09.662Z,80.40
2018-09-15T00:42:37.446Z,80.20
2018-09-15T00:45:05.269Z,80.30
2018-09-15T00:47:33.060Z,80.30
2018-09-15T00:50:00.813Z,80.10
2018-09-15T00:52:28.600Z,80.00
2018-09-15T00:54:56.492Z,80.40
2018-09-15T00:57:24.269Z,80.30
2018-09-15T00:59:52.988Z,81.00
2018-09-15T01:02:20.764Z,81.50
2018-09-15T01:04:52.660Z,82.00
2018-09-15T01:07:20.445Z,82.50
2018-09-15T01:09:48.213Z,83.30
2018-09-15T01:12:15.969Z,84.90
2018-09-15T01:14:43.755Z,84.90
2018-09-15T01:17:11.525Z,85.50
2018-09-15T01:19:39.396Z,84.90
2018-09-15T01:22:07.504Z,85.10
2018-09-15T01:24:35.265Z,85.50
2018-09-15T01:27:03.037Z,85.60
2018-09-15T01:29:31.928Z,85.90
2018-09-15T01:32:00.030Z,85.60
2018-09-15T01:34:27.792Z,86.00
2018-09-15T01:36:55.888Z,86.20
2018-09-15T01:39:23.841Z,86.80
2018-09-15T01:41:51.678Z,87.90
2018-09-15T01:44:19.503Z,87.50
2018-09-15T01:46:47.315Z,88.00
2018-09-15T01:49:16.796Z,87.90
2018-09-15T01:51:44.628Z,88.50
2018-09-15T01:54:12.436Z,89.20
2018-09-15T01:56:40.222Z,88.90
2018-09-15T01:59:08.017Z,86.80
2018-09-15T02:01:35.899Z,85.80
2018-09-15T02:04:03.661Z,86.90
2018-09-15T02:06:31.444Z,87.00
2018-09-15T02:08:59.241Z,86.70
2018-09-15T02:11:27.083Z,87.60
2018-09-15T02:13:55.349Z,89.00
2018-09-15T02:16:23.172Z,89.40
2018-09-15T02:18:50.937Z,89.80
2018-09-15T02:21:18.708Z,90.20
2018-09-15T02:23:46.440Z,90.00
2018-09-15T02:26:14.288Z,89.00
2018-09-15T02:28:42.056Z,89.50
2018-09-15T02:31:09.846Z,90.20
2018-09-15T02:33:37.581Z,90.30
2018-09-15T02:36:05.370Z,90.00
2018-09-15T02:38:33.125Z,89.40
2018-09-15T02:41:00.932Z,89.40
2018-09-15T02:43:28.813Z,89.20
2018-09-15T02:45:56.625Z,89.00
2018-09-15T02:48:24.502Z,89.30
2018-09-15T02:50:52.270Z,90.00
2018-09-15T02:53:20.149Z,89.60
2018-09-15T02:55:47.929Z,89.00
2018-09-15T02:58:15.697Z,89.10
2018-09-15T03:00:43.501Z,89.20
2018-09-15T03:03:12.152Z,89.30
2018-09-15T03:05:40.466Z,89.60
2018-09-15T03:08:08.237Z,89.50
2018-09-15T03:10:36.040Z,89.10
2018-09-15T03:13:03.786Z,89.50
2018-09-15T03:15:31.550Z,90.10
2018-09-15T03:17:59.353Z,90.10
2018-09-15T03:20:27.127Z,89.90
2018-09-15T03:22:55.273Z,90.00
2018-09-15T03:25:23.085Z,90.00
2018-09-15T03:27:50.877Z,90.40
2018-09-15T03:30:18.813Z,90.50
2018-09-15T03:32:46.612Z,90.70
2018-09-15T03:35:14.997Z,90.70
2018-09-15T03:37:43.129Z,90.80
2018-09-15T03:40:10.933Z,90.90
2018-09-15T03:42:38.680Z,91.00
2018-09-15T03:45:06.544Z,91.00
2018-09-15T03:47:34.288Z,91.00
2018-09-15T03:50:02.085Z,90.50
2018-09-15T03:52:29.889Z,90.40
2018-09-15T03:54:57.712Z,90.30
2018-09-15T03:57:25.559Z,90.30
2018-09-15T03:59:53.525Z,90.40
2018-09-15T04:02:21.261Z,90.20
2018-09-15T04:04:49.076Z,90.00
2018-09-15T04:07:16.833Z,90.10
2018-09-15T04:09:44.597Z,89.70
2018-09-15T04:12:12.380Z,90.00
2018-09-15T04:14:40.140Z,90.40
2018-09-15T04:17:07.937Z,90.60
2018-09-15T04:19:35.704Z,90.40
2018-09-15T04:22:04.251Z,90.50
2018-09-15T04:24:32.061Z,90.30
2018-09-15T04:26:59.832Z,88.20
2018-09-15T04:29:27.633Z,87.70
2018-09-15T04:31:55.792Z,87.20
2018-09-15T04:34:23.581Z,86.70
2018-09-15T04:36:52.593Z,86.50
2018-09-15T04:39:20.377Z,86.50
2018-09-15T04:41:48.886Z,86.20
2018-09-15T04:44:16.645Z,85.40
2018-09-15T04:46:44.405Z,85.60
2018-09-15T04:49:12.194Z,86.00
2018-09-15T04:51:39.974Z,86.40
2018-09-15T04:54:07.764Z,86.00
2018-09-15T04:56:35.587Z,86.20
2018-09-15T04:59:03.408Z,85.90
2018-09-15T05:01:31.237Z,85.90
2018-09-15T05:03:59.061Z,86.40
2018-09-15T05:06:26.937Z,86.90
2018-09-15T05:08:54.858Z,87.60
2018-09-15T05:11:22.628Z,88.20
2018-09-15T05:13:50.426Z,87.90
2018-09-15T05:16:18.206Z,86.20
2018-09-15T05:18:46.272Z,87.50
2018-09-15T05:21:14.042Z,87.10
2018-09-15T05:23:41.986Z,87.70
2018-09-15T05:26:09.776Z,87.20
2018-09-15T05:28:37.607Z,87.70
2018-09-15T05:31:05.341Z,88.40
2018-09-15T05:33:33.156Z,87.50
2018-09-15T05:36:01.032Z,86.80
2018-09-15T05:38:28.837Z,87.30
2018-09-15T05:40:56.718Z,87.80
2018-09-15T05:43:24.524Z,88.40
2018-09-15T05:45:52.292Z,88.90
2018-09-15T05:48:20.085Z,88.30
2018-09-15T05:50:47.869Z,87.40
2018-09-15T05:53:15.643Z,87.40
2018-09-15T05:55:43.448Z,87.50
2018-09-15T05:58:11.220Z,87.80
2018-09-15T06:00:39.020Z,87.40
2018-09-15T06:03:06.821Z,87.50
2018-09-15T06:05:34.574Z,87.50
2018-09-15T06:08:02.376Z,88.30
2018-09-15T06:10:30.189Z,88.20
2018-09-15T06:12:59.384Z,88.00
2018-09-15T06:15:27.261Z,88.20
2018-09-15T06:17:55.241Z,88.30
2018-09-15T06:20:23.869Z,88.20
2018-09-15T06:22:51.629Z,88.70
2018-09-15T06:25:19.617Z,87.40
2018-09-15T06:27:47.371Z,87.40
2018-09-15T06:30:15.169Z,87.20
2018-09-15T06:32:42.964Z,86.80
2018-09-15T06:35:10.853Z,87.50
2018-09-15T06:37:38.611Z,86.80
2018-09-15T06:40:06.761Z,87.20
2018-09-15T06:42:34.537Z,87.30
2018-09-15T06:45:02.381Z,87.40
2018-09-15T06:47:30.261Z,85.90
2018-09-15T06:49:58.121Z,85.80
2018-09-15T06:52:25.908Z,84.90
2018-09-15T06:54:53.671Z,84.90
2018-09-15T06:57:21.478Z,85.10
2018-09-15T06:59:49.232Z,84.50
2018-09-15T07:02:17.025Z,84.20
2018-09-15T07:04:44.796Z,84.20
2018-09-15T07:07:12.557Z,83.20
2018-09-15T07:09:40.325Z,83.10
2018-09-15T07:12:08.178Z,82.00
2018-09-15T07:14:35.957Z,81.00
2018-09-15T07:17:03.753Z,80.80
2018-09-15T07:19:31.597Z,80.50
2018-09-15T07:21:59.505Z,80.60
2018-09-15T07:24:27.300Z,80.40
2018-09-15T07:26:55.273Z,80.20
2018-09-15T07:29:23.053Z,79.90
2018-09-15T07:31:51.103Z,79.30
2018-09-15T07:34:18.933Z,78.50
2018-09-15T07:36:46.769Z,77.40
2018-09-15T07:39:14.672Z,77.50
2018-09-15T07:41:42.484Z,76.60
2018-09-15T07:44:10.310Z,76.30
2018-09-15T07:46:39.033Z,75.40
2018-09-15T07:49:06.805Z,74.90
2018-09-15T07:51:34.695Z,74.90
2018-09-15T07:54:02.472Z,74.50
2018-09-15T07:56:31.625Z,74.50
2018-09-15T07:58:59.445Z,74.30
2018-09-15T08:01:31.472Z,75.00
2018-09-15T08:03:59.378Z,75.60
2018-09-15T08:06:27.193Z,75.70
2018-09-15T08:08:55.243Z,74.60
2018-09-15T08:11:23.088Z,74.60
2018-09-15T08:13:50.905Z,75.30
2018-09-15T08:16:22.033Z,75.90
2018-09-15T08:18:50.045Z,76.00
2018-09-15T08:21:17.864Z,76.20
2018-09-15T08:23:45.629Z,76.40
2018-09-15T08:26:13.487Z,75.30
2018-09-15T08:28:41.289Z,76.00
2018-09-15T08:31:09.641Z,75.20
2018-09-15T08:33:37.428Z,74.40
2018-09-15T08:36:05.269Z,72.50
2018-09-15T08:38:33.361Z,67.90
2018-09-15T08:41:01.221Z,65.30
2018-09-15T08:43:29.025Z,62.70
2018-09-15T08:45:57.041Z,58.60
2018-09-15T08:48:24.857Z,59.10
2018-09-15T08:50:52.637Z,57.70
2018-09-15T08:53:21.521Z,56.00
2018-09-15T08:55:49.384Z,55.20
2018-09-15T08:58:17.209Z,53.10
2018-09-15T09:00:45.005Z,52.70
2018-09-15T09:03:12.865Z,51.10
2018-09-15T09:05:40.689Z,49.70
2018-09-15T09:08:08.518Z,48.90
2018-09-15T09:10:36.321Z,46.10
2018-09-15T09:13:04.217Z,45.00
2018-09-15T09:15:32.144Z,45.40
2018-09-15T09:18:00.022Z,45.10
2018-09-15T09:20:27.956Z,43.80
2018-09-15T09:22:55.845Z,44.50
2018-09-15T09:25:23.640Z,45.30
2018-09-15T09:27:51.401Z,42.60
2018-09-15T09:30:19.189Z,42.40
2018-09-15T09:32:47.032Z,41.80
2018-09-15T09:35:14.905Z,43.10
2018-09-15T09:37:42.757Z,40.20
2018-09-15T09:40:10.577Z,40.80
2018-09-15T09:42:38.440Z,41.00
2018-09-15T09:45:07.217Z,41.40
2018-09-15T09:47:35.017Z,41.10
2018-09-15T09:50:02.865Z,40.50
2018-09-15T09:52:30.670Z,40.30
2018-09-15T09:54:58.781Z,39.40
2018-09-15T09:57:26.780Z,39.10
2018-09-15T09:59:54.652Z,38.00
2018-09-15T10:02:23.505Z,37.80
2018-09-15T10:04:51.367Z,37.60
2018-09-15T10:07:19.481Z,35.40
2018-09-15T10:09:48.396Z,36.40
2018-09-15T10:12:16.314Z,35.00
2018-09-15T10:14:44.135Z,36.10
2018-09-15T10:17:11.959Z,35.40
2018-09-15T10:19:39.753Z,33.10
2018-09-15T10:22:07.525Z,33.20
2018-09-15T10:24:35.329Z,34.20
2018-09-15T10:27:03.232Z,32.60
2018-09-15T10:29:31.104Z,33.00
2018-09-15T10:31:58.894Z,32.80
2018-09-15T10:34:26.739Z,31.40
2018-09-15T10:36:55.241Z,30.60
2018-09-15T10:39:23.021Z,31.40
2018-09-15T10:41:50.814Z,30.80
2018-09-15T10:44:18.687Z,30.40
2018-09-15T10:46:46.624Z,32.20
2018-09-15T10:49:14.473Z,32.30
2018-09-15T10:51:42.257Z,31.00
2018-09-15T10:54:10.013Z,31.80
2018-09-15T10:56:37.782Z,31.10
2018-09-15T10:59:05.574Z,30.90
2018-09-15T11:01:33.396Z,30.30
2018-09-15T11:04:01.245Z,32.30
2018-09-15T11:06:29.106Z,30.20
2018-09-15T11:08:57.804Z,30.00
2018-09-15T11:11:25.625Z,30.70
2018-09-15T11:13:53.393Z,30.60
2018-09-15T11:16:21.181Z,30.00
2018-09-15T11:18:48.967Z,30.30
2018-09-15T11:21:16.793Z,32.10
2018-09-15T11:23:44.553Z,30.80
2018-09-15T11:26:12.333Z,30.50
2018-09-15T11:28:40.190Z,29.90
2018-09-15T11:31:08.059Z,29.70
2018-09-15T11:33:35.853Z,29.40
2018-09-15T11:36:03.689Z,29.30
2018-09-15T11:38:31.557Z,29.10
2018-09-15T11:40:59.561Z,29.50
2018-09-15T11:43:27.391Z,29.00
2018-09-15T11:45:55.269Z,29.40
2018-09-15T11:48:23.053Z,28.00
2018-09-15T11:50:50.964Z,27.80
2018-09-15T11:53:18.817Z,28.50
2018-09-15T11:55:46.656Z,28.60
2018-09-15T11:58:14.634Z,27.60
2018-09-15T12:00:46.045Z,27.70
2018-09-15T12:03:14.080Z,26.70
2018-09-15T12:05:41.909Z,28.00
2018-09-15T12:08:09.714Z,27.60
2018-09-15T12:10:37.517Z,27.70
2018-09-15T12:13:05.345Z,27.70
2018-09-15T12:15:33.148Z,28.10
2018-09-15T12:18:01.115Z,27.80
2018-09-15T12:20:29.188Z,27.70
2018-09-15T12:22:57.338Z,27.50
2018-09-15T12:25:25.124Z,27.00
2018-09-15T12:27:53.009Z,26.50
2018-09-15T12:30:20.792Z,27.20
2018-09-15T12:32:48.573Z,27.40
2018-09-15T12:35:16.380Z,27.20
2018-09-15T12:37:44.186Z,27.30
2018-09-15T12:40:11.957Z,27.40
2018-09-15T12:42:39.797Z,28.10
2018-09-15T12:45:07.761Z,28.50
2018-09-15T12:47:35.468Z,27.50
2018-09-15T12:50:03.284Z,27.90
2018-09-15T12:52:31.241Z,27.70
2018-09-15T12:55:00.346Z,26.10
2018-09-15T12:57:28.162Z,27.20
2018-09-15T12:59:58.266Z,26.70
2018-09-15T13:02:26.137Z,27.00
2018-09-15T13:04:53.974Z,28.40
2018-09-15T13:07:21.818Z,27.00
2018-09-15T13:09:49.637Z,27.90
2018-09-15T13:12:17.424Z,27.50
2018-09-15T13:14:45.209Z,27.10
2018-09-15T13:17:13.005Z,27.50
2018-09-15T13:19:41.688Z,27.80
2018-09-15T13:22:09.484Z,27.00
2018-09-15T13:24:37.296Z,27.10
2018-09-15T13:27:05.253Z,27.40
2018-09-15T13:29:33.329Z,27.20
2018-09-15T13:32:01.297Z,27.80
2018-09-15T13:34:29.329Z,27.80
2018-09-15T13:36:57.240Z,27.60
2018-09-15T13:39:25.105Z,27.50
2018-09-15T13:41:52.896Z,27.30
2018-09-15T13:44:20.709Z,26.80
2018-09-15T13:46:48.632Z,27.00
2018-09-15T13:49:16.394Z,27.60
2018-09-15T13:51:44.208Z,27.30
2018-09-15T13:54:11.972Z,26.60
2018-09-15T13:56:39.722Z,27.30
2018-09-15T13:59:07.599Z,26.70
2018-09-15T14:01:35.377Z,26.90
2018-09-15T14:04:03.208Z,27.10
2018-09-15T14:06:31.180Z,27.30
2018-09-15T14:08:59.025Z,27.40
2018-09-15T14:11:26.873Z,27.10
2018-09-15T14:13:54.729Z,27.80
2018-09-15T14:16:22.644Z,26.90
2018-09-15T14:18:50.408Z,27.80
2018-09-15T14:21:18.189Z,27.30
2018-09-15T14:23:45.948Z,27.50
2018-09-15T14:26:13.737Z,27.70
2018-09-15T14:28:41.729Z,27.80
2018-09-15T14:31:09.492Z,28.10
2018-09-15T14:33:37.309Z,28.10
2018-09-15T14:36:05.065Z,27.40
2018-09-15T14:38:32.939Z,27.30
2018-09-15T14:41:00.720Z,27.70
2018-09-15T14:43:28.525Z,27.90
2018-09-15T14:45:56.373Z,28.30
2018-09-15T14:48:24.207Z,28.90
2018-09-15T14:50:51.950Z,28.70
2018-09-15T14:53:19.805Z,29.00
2018-09-15T14:55:47.645Z,28.90
2018-09-15T14:58:15.437Z,28.90
2018-09-15T15:00:47.791Z,29.00
2018-09-15T15:03:15.672Z,29.60
2018-09-15T15:05:43.460Z,29.20
2018-09-15T15:08:11.340Z,29.20
2018-09-15T15:10:39.165Z,29.10
2018-09-15T15:13:06.949Z,29.30
2018-09-15T15:15:34.760Z,29.80
2018-09-15T15:18:02.637Z,29.70
2018-09-15T15:20:30.637Z,29.50
2018-09-15T15:22:58.418Z,30.00
2018-09-15T15:25:26.252Z,30.50
2018-09-15T15:27:54.045Z,31.10
2018-09-15T15:30:21.840Z,30.80
2018-09-15T15:32:49.657Z,30.80
2018-09-15T15:35:17.477Z,31.90
2018-09-15T15:37:45.295Z,32.40
2018-09-15T15:40:13.101Z,32.50
2018-09-15T15:42:40.869Z,33.00
2018-09-15T15:45:08.695Z,32.90
2018-09-15T15:47:36.437Z,33.80
2018-09-15T15:50:04.321Z,35.40
2018-09-15T15:52:32.225Z,36.10
2018-09-15T15:55:00.101Z,36.30
2018-09-15T15:57:27.903Z,36.70
2018-09-15T15:59:55.798Z,36.90
2018-09-15T16:02:23.624Z,37.20
2018-09-15T16:04:51.431Z,38.00
2018-09-15T16:07:19.513Z,38.70
2018-09-15T16:09:47.303Z,39.30
2018-09-15T16:12:15.161Z,40.30
2018-09-15T16:14:42.985Z,40.90
2018-09-15T16:17:10.862Z,41.50
2018-09-15T16:19:38.705Z,42.00
2018-09-15T16:22:06.685Z,42.30
2018-09-15T16:24:34.568Z,43.50
2018-09-15T16:27:02.528Z,43.50
2018-09-15T16:29:30.492Z,43.40
2018-09-15T16:31:58.305Z,44.00
2018-09-15T16:34:26.082Z,44.10
2018-09-15T16:36:53.885Z,44.00
2018-09-15T16:39:21.721Z,43.90
2018-09-15T16:41:49.521Z,44.40
2018-09-15T16:44:17.321Z,44.90
2018-09-15T16:46:45.375Z,44.90
2018-09-15T16:49:13.207Z,44.50
2018-09-15T16:51:41.036Z,44.60
2018-09-15T16:54:08.804Z,45.00
2018-09-15T16:56:37.029Z,45.50
2018-09-15T16:59:04.964Z,45.50
2018-09-15T17:01:33.029Z,45.70
2018-09-15T17:04:00.797Z,46.10
2018-09-15T17:06:28.577Z,46.10
2018-09-15T17:08:56.901Z,46.30
2018-09-15T17:11:25.410Z,47.00
2018-09-15T17:13:53.959Z,47.10
2018-09-15T17:16:22.578Z,47.40
2018-09-15T17:18:51.040Z,48.00
2018-09-15T17:21:19.519Z,48.40
2018-09-15T17:23:47.320Z,49.20
2018-09-15T17:26:15.194Z,49.60
2018-09-15T17:28:42.976Z,50.20
2018-09-15T17:31:11.161Z,50.70
2018-09-15T17:33:38.952Z,51.10
2018-09-15T17:36:06.903Z,50.60
2018-09-15T17:38:34.874Z,50.50
2018-09-15T17:41:02.912Z,51.10
2018-09-15T17:43:30.802Z,51.80
2018-09-15T17:45:58.647Z,52.40
2018-09-15T17:48:26.423Z,52.90
2018-09-15T17:50:54.220Z,53.60
2018-09-15T17:53:22.009Z,54.50
2018-09-15T17:55:49.815Z,54.90
2018-09-15T17:58:18.161Z,55.30
2018-09-15T18:00:45.977Z,55.70
2018-09-15T18:03:13.793Z,55.80
2018-09-15T18:05:41.612Z,56.10
2018-09-15T18:08:09.508Z,56.90
2018-09-15T18:10:37.357Z,57.10
2018-09-15T18:13:05.312Z,57.50
2018-09-15T18:15:33.253Z,57.70
2018-09-15T18:18:01.162Z,58.40
2018-09-15T18:20:28.936Z,58.60
2018-09-15T18:22:56.736Z,58.90
2018-09-15T18:25:24.615Z,59.40
2018-09-15T18:27:52.397Z,59.40
2018-09-15T18:30:20.172Z,60.00
2018-09-15T18:32:47.959Z,59.90
2018-09-15T18:35:15.860Z,60.20
2018-09-15T18:37:43.638Z,60.90
2018-09-15T18:40:11.493Z,60.80
2018-09-15T18:42:39.249Z,61.30
2018-09-15T18:45:07.205Z,61.40
2018-09-15T18:47:34.964Z,62.00
2018-09-15T18:50:03.060Z,62.10
2018-09-15T18:52:30.901Z,61.60
2018-09-15T18:54:59.817Z,61.70
2018-09-15T18:57:27.607Z,61.90
2018-09-15T18:59:56.084Z,62.40
2018-09-15T19:02:23.945Z,62.40
2018-09-15T19:04:51.860Z,62.40
2018-09-15T19:07:19.792Z,62.60
2018-09-15T19:09:47.617Z,63.30
2018-09-15T19:12:15.525Z,63.70
2018-09-15T19:14:43.408Z,63.50
2018-09-15T19:17:11.222Z,63.50
2018-09-15T19:19:39.169Z,62.90
2018-09-15T19:22:07.169Z,62.90
2018-09-15T19:24:35.075Z,62.70
2018-09-15T19:27:03.130Z,62.50
2018-09-15T19:29:31.094Z,62.50
2018-09-15T19:31:58.878Z,62.90
2018-09-15T19:34:26.662Z,63.10
2018-09-15T19:36:54.437Z,63.70
2018-09-15T19:39:22.285Z,64.10
2018-09-15T19:41:50.081Z,64.20
2018-09-15T19:44:17.994Z,64.20
2018-09-15T19:46:45.737Z,64.70
2018-09-15T19:49:13.674Z,65.20
2018-09-15T19:51:41.483Z,65.20
2018-09-15T19:54:09.249Z,65.70
2018-09-15T19:56:37.069Z,66.20
2018-09-15T19:59:05.360Z,66.30
2018-09-15T20:01:33.297Z,67.00
2018-09-15T20:04:01.131Z,67.70
2018-09-15T20:06:29.038Z,68.00
2018-09-15T20:08:56.825Z,67.80
2018-09-15T20:11:24.636Z,67.60
2018-09-15T20:13:52.537Z,67.70
2018-09-15T20:16:19.243Z,67.70
2018-09-15T20:18:45.932Z,67.40
2018-09-15T20:21:12.496Z,67.60
2018-09-15T20:23:40.295Z,67.30
2018-09-15T20:26:08.101Z,67.20
2018-09-15T20:28:36.064Z,67.10
2018-09-15T20:31:03.857Z,67.20
2018-09-15T20:33:31.698Z,67.40
2018-09-15T20:35:59.489Z,67.50
2018-09-15T20:38:27.325Z,67.30
2018-09-15T20:40:55.219Z,67.40
2018-09-15T20:43:23.181Z,67.10
2018-09-15T20:45:50.973Z,67.20
2018-09-15T20:48:18.785Z,67.40
2018-09-15T20:50:46.557Z,67.70
2018-09-15T20:53:14.320Z,68.10
2018-09-15T20:55:42.109Z,68.30
2018-09-15T20:58:09.908Z,68.20
2018-09-15T21:00:37.712Z,68.10
2018-09-15T21:03:05.553Z,68.30
2018-09-15T21:05:33.494Z,68.50
2018-09-15T21:08:01.280Z,68.30
2018-09-15T21:10:29.098Z,67.90
2018-09-15T21:12:57.004Z,67.80
2018-09-15T21:15:24.829Z,68.30
2018-09-15T21:17:52.641Z,68.50
2018-09-15T21:20:20.440Z,68.60
2018-09-15T21:22:48.338Z,68.80
2018-09-15T21:25:16.210Z,69.40
2018-09-15T21:27:44.012Z,69.70
2018-09-15T21:30:14.113Z,70.20
2018-09-15T21:32:41.928Z,70.60
2018-09-15T21:35:11.801Z,70.80
2018-09-15T21:37:40.853Z,70.70
2018-09-15T21:40:08.721Z,71.80
2018-09-15T21:42:36.664Z,71.50
2018-09-15T21:45:04.758Z,71.60
2018-09-15T21:47:32.853Z,72.10
2018-09-15T21:50:00.889Z,72.30
2018-09-15T21:52:28.808Z,72.70
2018-09-15T21:54:56.614Z,72.60
2018-09-15T21:57:24.429Z,72.80
2018-09-15T21:59:52.208Z,72.80
2018-09-15T22:02:21.761Z,73.60
2018-09-15T22:04:49.763Z,73.40
2018-09-15T22:07:17.688Z,72.90
2018-09-15T22:09:46.325Z,72.20
2018-09-15T22:12:14.153Z,72.20
2018-09-15T22:14:41.931Z,72.60
2018-09-15T22:17:09.748Z,72.80
2018-09-15T22:19:37.573Z,73.30
2018-09-15T22:22:06.730Z,73.00
2018-09-15T22:24:35.087Z,73.80
2018-09-15T22:27:03.544Z,74.20
2018-09-15T22:29:31.367Z,75.00
2018-09-15T22:31:59.237Z,74.90
2018-09-15T22:34:27.001Z,74.70
2018-09-15T22:36:54.900Z,74.90
2018-09-15T22:39:23.020Z,75.20
2018-09-15T22:41:50.960Z,75.10
2018-09-15T22:44:19.060Z,75.20
2018-09-15T22:46:46.901Z,75.90
2018-09-15T22:49:14.663Z,75.90
2018-09-15T22:51:42.485Z,75.80
2018-09-15T22:54:10.427Z,76.40
2018-09-15T22:56:38.233Z,75.70
2018-09-15T22:59:06.477Z,75.70
2018-09-15T23:01:34.288Z,75.70
2018-09-15T23:04:04.466Z,75.60
2018-09-15T23:06:33.217Z,76.10
2018-09-15T23:09:01.245Z,75.30
2018-09-15T23:11:29.045Z,75.30
2018-09-15T23:13:56.921Z,75.90
2018-09-15T23:16:24.710Z,76.30
2018-09-15T23:18:52.542Z,76.70
2018-09-15T23:21:20.284Z,77.40
2018-09-15T23:23:48.225Z,77.70
2018-09-15T23:26:16.460Z,77.90
2018-09-15T23:28:44.206Z,78.30
2018-09-15T23:31:12.045Z,77.90
2018-09-15T23:33:39.849Z,78.00
2018-09-15T23:36:07.677Z,78.10
2018-09-15T23:38:35.452Z,78.50
2018-09-15T23:41:06.068Z,78.70
2018-09-15T23:43:33.853Z,78.90
2018-09-15T23:46:01.603Z,78.90
2018-09-15T23:48:29.427Z,79.00
2018-09-15T23:50:57.261Z,79.30
2018-09-15T23:53:25.025Z,79.40
2018-09-15T23:55:52.826Z,78.90
2018-09-15T23:58:20.644Z,79.20
